Time;durP1;ratioP1;P1;durP2;ratioP2;P2;SDS_P1;SDS_P2;PMS_P1;PMS_P2;Temp;Humidity;BMP_temperature;BMP_pressure;BME280_temperature;BME280_humidity;BME280_pressure;Samples;Min_cycle;Max_cycle;Signal;HPM_P1;HPM_P2
2023/05/23 00:01:38;;;;;;;9.05;6.22;;;;;;;14.54;100.00;92512.97;4937058;29;20133;-75
2023/05/23 00:04:05;;;;;;;9.73;6.28;;;;;;;14.51;100.00;92507.53;4954333;28;20548;-76
2023/05/23 00:06:33;;;;;;;10.82;6.47;;;;;;;14.45;100.00;92498.97;4954621;29;20043;-76
2023/05/23 00:08:58;;;;;;;8.32;6.28;;;;;;;14.40;100.00;92501.78;4945270;29;20533;-76
2023/05/23 00:11:26;;;;;;;11.77;6.30;;;;;;;14.34;100.00;92505.63;4918080;29;20044;-75
2023/05/23 00:13:56;;;;;;;10.55;7.05;;;;;;;14.26;100.00;92495.88;4934921;29;20028;-76
2023/05/23 00:16:21;;;;;;;9.40;6.65;;;;;;;14.23;100.00;92492.00;4935086;29;20075;-76
2023/05/23 00:18:49;;;;;;;9.05;6.88;;;;;;;14.21;100.00;92488.13;4949798;29;20159;-76
2023/05/23 00:21:15;;;;;;;8.50;6.20;;;;;;;14.17;100.00;92487.97;4952863;29;20070;-76
2023/05/23 00:23:41;;;;;;;8.48;6.40;;;;;;;14.13;100.00;92492.28;4936625;29;20031;-76
2023/05/23 00:26:08;;;;;;;10.63;6.03;;;;;;;14.08;100.00;92492.44;4954038;29;20400;-76
2023/05/23 00:28:33;;;;;;;9.90;6.60;;;;;;;14.02;100.00;92486.53;4953811;29;20030;-76
2023/05/23 00:30:59;;;;;;;9.88;5.85;;;;;;;14.00;100.00;92485.31;4936461;29;20039;-76
2023/05/23 00:33:25;;;;;;;9.50;6.50;;;;;;;13.97;100.00;92483.28;4920771;29;20481;-76
2023/05/23 00:35:51;;;;;;;9.23;6.65;;;;;;;13.91;100.00;92474.75;4953988;29;20042;-76
2023/05/23 00:38:16;;;;;;;12.60;6.82;;;;;;;13.87;100.00;92473.81;4936728;29;20031;-76
2023/05/23 00:40:42;;;;;;;10.68;6.18;;;;;;;13.82;100.00;92469.47;4953707;29;20039;-76
2023/05/23 00:43:08;;;;;;;9.82;7.20;;;;;;;13.73;100.00;92474.72;4953704;28;20122;-76
2023/05/23 00:45:33;;;;;;;11.18;6.78;;;;;;;13.66;100.00;92468.34;4951861;29;20046;-76
2023/05/23 00:48:00;;;;;;;9.65;6.57;;;;;;;13.62;100.00;92468.19;4934500;29;20028;-76
2023/05/23 00:50:28;;;;;;;9.50;6.43;;;;;;;13.61;100.00;92476.38;4934802;29;20050;-76
2023/05/23 00:52:55;;;;;;;10.27;6.72;;;;;;;13.58;100.00;92471.72;4919584;29;20079;-76
2023/05/23 00:55:21;;;;;;;12.35;6.60;;;;;;;13.57;100.00;92464.91;4933065;29;20057;-76
2023/05/23 00:57:47;;;;;;;13.55;6.13;;;;;;;13.54;100.00;92461.81;4933070;29;20059;-76
2023/05/23 01:00:14;;;;;;;8.35;6.63;;;;;;;13.52;100.00;92463.19;4934821;29;20043;-76
2023/05/23 01:02:45;;;;;;;12.63;6.63;;;;;;;13.49;100.00;92459.31;4934351;29;20091;-76
2023/05/23 01:05:16;;;;;;;11.48;6.55;;;;;;;13.47;100.00;92458.84;4934273;29;20036;-76
2023/05/23 01:07:46;;;;;;;10.80;6.65;;;;;;;13.47;100.00;92460.72;4932945;29;20044;-76
2023/05/23 01:10:13;;;;;;;9.20;6.82;;;;;;;13.45;100.00;92458.38;4932941;29;20099;-76
2023/05/23 01:12:54;;;;;;;9.73;6.25;;;;;;;13.47;100.00;92458.09;4934096;29;20034;-75
2023/05/23 01:15:24;;;;;;;11.68;6.47;;;;;;;13.47;100.00;92458.84;4934363;29;20060;-76
2023/05/23 01:18:25;;;;;;;11.65;6.35;;;;;;;13.49;100.00;92456.69;4941761;29;20071;-75
2023/05/23 01:20:58;;;;;;;8.10;6.18;;;;;;;13.49;100.00;92453.31;4953127;29;20124;-76
2023/05/23 01:23:39;;;;;;;8.27;5.93;;;;;;;13.43;100.00;92455.28;4951888;28;20039;-76
2023/05/23 01:26:13;;;;;;;12.57;5.78;;;;;;;13.38;100.00;92447.53;4952071;29;20061;-75
2023/05/23 01:28:44;;;;;;;12.45;6.10;;;;;;;13.37;100.00;92442.56;4952356;29;20441;-76
2023/05/23 01:31:10;;;;;;;9.82;6.25;;;;;;;13.34;100.00;92436.06;4943322;29;20123;-75
2023/05/23 01:33:39;;;;;;;8.30;6.07;;;;;;;13.32;100.00;92438.22;4934057;29;20530;-75
2023/05/23 01:36:04;;;;;;;10.50;6.38;;;;;;;13.30;100.00;92443.78;4935787;29;20405;-75
2023/05/23 01:38:30;;;;;;;11.10;5.82;;;;;;;13.28;100.00;92432.00;4936517;29;20028;-76
2023/05/23 01:40:56;;;;;;;9.77;6.28;;;;;;;13.26;100.00;92437.56;4920951;29;20031;-76
2023/05/23 01:43:24;;;;;;;12.02;6.22;;;;;;;13.25;100.00;92432.59;4920453;29;20028;-76
2023/05/23 01:45:54;;;;;;;9.00;6.00;;;;;;;13.19;100.00;92433.81;4941188;29;20038;-76
2023/05/23 01:48:22;;;;;;;8.43;5.90;;;;;;;13.16;100.00;92431.78;4940246;29;20059;-76
2023/05/23 01:50:48;;;;;;;10.18;5.68;;;;;;;13.15;100.00;92433.66;4920715;29;20421;-76
2023/05/23 01:53:16;;;;;;;9.10;5.90;;;;;;;13.09;100.00;92429.59;4951503;28;20052;-76
2023/05/23 01:55:42;;;;;;;9.85;6.45;;;;;;;13.07;100.00;92432.53;4921544;29;20040;-76
2023/05/23 01:58:08;;;;;;;8.90;6.18;;;;;;;13.04;100.00;92427.88;4920262;29;20040;-76
2023/05/23 02:00:34;;;;;;;8.10;5.78;;;;;;;13.04;100.00;92427.88;4936139;29;20469;-76
2023/05/23 02:02:59;;;;;;;9.18;6.28;;;;;;;13.05;100.00;92429.41;4955526;28;20043;-76
2023/05/23 02:05:26;;;;;;;8.95;6.20;;;;;;;13.04;100.00;92424.47;4938942;29;20035;-76
2023/05/23 02:07:51;;;;;;;8.80;5.75;;;;;;;13.04;100.00;92422.63;4948781;29;20066;-76
2023/05/23 02:10:18;;;;;;;8.18;6.03;;;;;;;13.04;100.00;92421.84;4956361;29;20059;-76
2023/05/23 02:12:44;;;;;;;10.35;6.38;;;;;;;13.04;100.00;92427.88;4953886;29;20121;-76
2023/05/23 02:15:10;;;;;;;7.78;5.65;;;;;;;13.02;100.00;92419.53;4955082;28;20489;-76
2023/05/23 02:17:37;;;;;;;8.85;6.28;;;;;;;13.00;100.00;92415.66;4939299;29;20242;-76
2023/05/23 02:20:05;;;;;;;11.55;5.82;;;;;;;13.00;100.00;92410.41;4955208;29;20166;-76
2023/05/23 02:22:31;;;;;;;9.13;5.60;;;;;;;12.99;100.00;92414.88;4956180;29;20159;-76
2023/05/23 02:24:56;;;;;;;9.15;5.78;;;;;;;13.03;100.00;92423.69;4938530;29;20402;-75
2023/05/23 02:27:22;;;;;;;8.77;5.25;;;;;;;13.11;100.00;92420.34;4954914;29;20038;-76
2023/05/23 02:29:47;;;;;;;10.23;5.32;;;;;;;13.13;100.00;92420.81;4938350;29;20039;-75
2023/05/23 02:32:13;;;;;;;7.43;5.18;;;;;;;13.11;100.00;92422.97;4938798;29;20046;-76
2023/05/23 02:34:39;;;;;;;10.77;5.30;;;;;;;13.11;100.00;92414.31;4938662;29;20031;-76
2023/05/23 02:37:05;;;;;;;8.60;5.22;;;;;;;13.10;100.00;92416.16;4938633;29;20035;-76
2023/05/23 02:39:31;;;;;;;7.82;4.65;;;;;;;13.25;100.00;92417.59;4938817;29;20030;-76
2023/05/23 02:41:56;;;;;;;7.13;4.70;;;;;;;13.31;100.00;92408.53;4948060;29;20051;-76
2023/05/23 02:44:24;;;;;;;7.25;4.35;;;;;;;13.35;100.00;92411.31;4938533;29;20333;-76
2023/05/23 02:46:50;;;;;;;8.40;4.80;;;;;;;13.51;100.00;92409.84;4938019;29;20556;-76
2023/05/23 02:49:17;;;;;;;9.52;4.70;;;;;;;13.52;100.00;92410.59;4930655;29;20467;-76
2023/05/23 02:51:42;;;;;;;6.72;4.57;;;;;;;13.48;100.00;92413.06;4955688;29;20135;-76
2023/05/23 02:54:08;;;;;;;8.15;4.53;;;;;;;13.41;100.00;92415.38;4951000;28;20066;-76
2023/05/23 02:56:36;;;;;;;7.03;4.53;;;;;;;13.37;100.00;92403.91;4935226;29;20489;-76
2023/05/23 02:59:01;;;;;;;6.38;4.30;;;;;;;13.33;100.00;92414.25;4935108;29;20122;-76
2023/05/23 03:01:27;;;;;;;7.53;4.78;;;;;;;13.37;100.00;92409.16;4932576;29;20040;-75
2023/05/23 03:03:52;;;;;;;7.05;4.40;;;;;;;13.47;100.00;92410.75;4916096;29;20040;-76
2023/05/23 03:06:21;;;;;;;6.72;4.72;;;;;;;13.58;100.00;92408.59;4933407;29;20044;-76
2023/05/23 03:08:47;;;;;;;6.18;4.28;;;;;;;13.68;100.00;92405.69;4922280;29;20060;-75
2023/05/23 03:11:13;;;;;;;10.98;4.93;;;;;;;13.83;100.00;92412.38;4932005;29;20040;-76
2023/05/23 03:13:38;;;;;;;7.43;4.70;;;;;;;13.92;100.00;92408.66;4926779;29;20028;-76
2023/05/23 03:16:04;;;;;;;6.70;4.75;;;;;;;13.89;100.00;92409.28;4934846;29;20050;-76
2023/05/23 03:18:29;;;;;;;7.95;4.55;;;;;;;13.87;100.00;92408.81;4932896;29;20406;-76
2023/05/23 03:20:55;;;;;;;7.50;4.88;;;;;;;13.90;100.00;92407.44;4922412;29;20032;-76
2023/05/23 03:23:22;;;;;;;7.43;5.13;;;;;;;13.87;100.00;92411.47;4936076;29;20442;-76
2023/05/23 03:25:48;;;;;;;7.45;5.07;;;;;;;13.94;100.00;92411.00;4950758;29;20043;-76
2023/05/23 03:28:14;;;;;;;11.63;5.07;;;;;;;13.93;100.00;92410.22;4935343;29;20482;-76
2023/05/23 03:30:40;;;;;;;7.32;4.53;;;;;;;13.90;100.00;92405.56;4936038;29;20059;-75
2023/05/23 03:33:06;;;;;;;6.90;4.65;;;;;;;13.97;100.00;92391.19;4950677;29;20024;-76
2023/05/23 03:35:32;;;;;;;7.47;4.88;;;;;;;13.95;100.00;92402.00;4935739;29;20407;-76
2023/05/23 03:37:58;;;;;;;10.32;5.15;;;;;;;14.03;100.00;92405.75;4934389;29;20035;-76
2023/05/23 03:40:24;;;;;;;10.00;5.07;;;;;;;14.00;100.00;92408.97;4935824;29;20035;-76
2023/05/23 03:43:04;;;;;;;7.32;5.18;;;;;;;13.88;100.00;92405.09;4935908;29;20051;-76
2023/05/23 03:45:31;;;;;;;7.63;4.72;;;;;;;13.74;100.00;92407.09;4917622;29;20048;-76
2023/05/23 03:47:59;;;;;;;9.95;4.82;;;;;;;13.74;100.00;92409.72;4915186;29;20032;-76
2023/05/23 03:50:25;;;;;;;8.30;5.38;;;;;;;13.74;100.00;92417.63;4915213;29;20513;-76
2023/05/23 03:52:51;;;;;;;9.20;5.82;;;;;;;13.73;100.00;92416.06;4949550;29;20079;-76
2023/05/23 03:55:21;;;;;;;8.63;5.32;;;;;;;13.64;100.00;92423.16;4934206;29;20462;-75
2023/05/23 03:57:53;;;;;;;7.90;5.28;;;;;;;13.60;100.00;92416.97;4933642;29;20050;-75
2023/05/23 04:00:19;;;;;;;7.57;5.53;;;;;;;13.50;100.00;92428.53;4933887;29;20031;-76
2023/05/23 04:02:50;;;;;;;9.20;5.38;;;;;;;13.40;100.00;92418.31;4933773;29;20035;-76
2023/05/23 04:05:18;;;;;;;8.35;5.40;;;;;;;13.34;100.00;92430.81;4933838;29;20050;-76
2023/05/23 04:07:44;;;;;;;8.65;5.55;;;;;;;13.31;100.00;92432.19;4934334;29;20056;-75
2023/05/23 04:10:10;;;;;;;9.65;5.25;;;;;;;13.30;100.00;92427.22;4933898;29;20075;-76
2023/05/23 04:12:37;;;;;;;8.68;5.28;;;;;;;13.30;100.00;92424.59;4933884;29;20489;-76
2023/05/23 04:15:07;;;;;;;9.30;4.90;;;;;;;13.29;100.00;92429.09;4930569;29;20036;-76
2023/05/23 04:17:37;;;;;;;9.07;4.88;;;;;;;13.28;100.00;92422.28;4914589;29;20044;-75
2023/05/23 04:20:08;;;;;;;9.25;4.93;;;;;;;13.28;100.00;92424.13;4933005;29;20224;-75
2023/05/23 04:22:34;;;;;;;7.10;5.00;;;;;;;13.27;100.00;92419.94;4933375;29;20070;-75
2023/05/23 04:25:00;;;;;;;7.45;5.22;;;;;;;13.28;100.00;92421.50;4917485;29;20080;-75
2023/05/23 04:27:29;;;;;;;7.45;4.78;;;;;;;13.29;100.00;92429.09;4932163;29;20039;-76
2023/05/23 04:29:57;;;;;;;10.63;5.35;;;;;;;13.32;100.00;92423.22;4909254;29;20059;-76
2023/05/23 04:32:24;;;;;;;7.68;4.78;;;;;;;13.36;100.00;92423.41;4926301;29;20048;-78
2023/05/23 04:34:50;;;;;;;7.22;4.88;;;;;;;13.40;100.00;92426.97;4931945;29;20044;-82
2023/05/23 04:37:24;;;;;;;8.15;5.07;;;;;;;13.44;100.00;92424.50;4936751;29;20044;-77
2023/05/23 04:39:51;;;;;;;10.10;5.35;;;;;;;13.45;100.00;92428.69;4931305;29;20126;-78
2023/05/23 04:42:29;;;;;;;6.72;4.68;;;;;;;13.44;100.00;92420.03;4932434;29;20074;-77
2023/05/23 04:45:04;;;;;;;8.15;4.80;;;;;;;13.46;100.00;92425.72;4917527;29;20443;-80
2023/05/23 04:47:56;;;;;;;7.03;4.60;;;;;;;13.50;100.00;92426.69;4915535;29;20094;-77
2023/05/23 04:50:50;;;;;;;6.80;4.90;;;;;;;13.54;100.00;92425.00;4929636;29;20052;-77
2023/05/23 04:53:16;;;;;;;7.40;5.18;;;;;;;13.58;100.00;92427.81;4950177;28;20585;-76
2023/05/23 04:55:42;;;;;;;12.35;5.28;;;;;;;13.56;100.00;92432.59;4917986;29;20039;-77
2023/05/23 04:58:12;;;;;;;8.82;5.35;;;;;;;13.61;100.00;92436.94;4933451;29;20533;-76
2023/05/23 05:00:38;;;;;;;7.50;4.82;;;;;;;13.67;100.00;92435.72;4933308;29;20107;-77
2023/05/23 05:03:05;;;;;;;7.07;5.00;;;;;;;13.76;100.00;92428.63;4926410;29;20032;-77
2023/05/23 05:05:31;;;;;;;8.75;4.97;;;;;;;13.84;100.00;92435.72;4926370;29;20253;-76
2023/05/23 05:07:57;;;;;;;11.95;5.28;;;;;;;13.95;100.00;92437.00;4933032;29;20108;-79
2023/05/23 05:10:23;;;;;;;8.25;5.07;;;;;;;14.03;100.00;92435.47;4935148;29;20043;-78
2023/05/23 05:12:48;;;;;;;7.57;4.80;;;;;;;14.11;100.00;92445.22;4927270;29;20032;-77
2023/05/23 05:15:18;;;;;;;13.20;5.15;;;;;;;14.19;100.00;92438.44;4931562;29;20526;-77
2023/05/23 05:17:46;;;;;;;9.38;5.22;;;;;;;14.27;100.00;92429.75;4930733;29;20066;-79
2023/05/23 05:20:14;;;;;;;8.70;5.10;;;;;;;14.36;100.00;92435.81;4932829;29;20082;-77
2023/05/23 05:22:40;;;;;;;7.43;4.85;;;;;;;14.48;100.00;92439.66;4921132;29;20051;-78
2023/05/23 05:25:07;;;;;;;8.13;4.90;;;;;;;14.54;100.00;92436.56;4946277;29;20040;-77
2023/05/23 05:27:34;;;;;;;7.40;4.70;;;;;;;14.64;100.00;92430.22;4949703;29;20580;-77
2023/05/23 05:30:03;;;;;;;9.07;5.50;;;;;;;14.74;100.00;92432.53;4949626;29;20379;-77
2023/05/23 05:32:32;;;;;;;8.30;5.20;;;;;;;14.83;100.00;92431.75;4925525;29;20109;-76
2023/05/23 05:35:00;;;;;;;8.07;4.72;;;;;;;14.96;100.00;92434.19;4920924;29;20665;-77
2023/05/23 05:37:27;;;;;;;7.97;4.53;;;;;;;15.09;100.00;92436.97;4949090;29;20512;-77
2023/05/23 05:39:53;;;;;;;6.97;4.75;;;;;;;15.22;100.00;92440.47;4934186;29;20040;-77
2023/05/23 05:42:20;;;;;;;8.23;4.80;;;;;;;15.34;100.00;92438.72;4917766;29;20441;-77
2023/05/23 05:44:47;;;;;;;7.57;5.05;;;;;;;15.49;100.00;92434.81;4915098;29;20044;-77
2023/05/23 05:47:14;;;;;;;8.50;4.97;;;;;;;15.68;100.00;92433.63;4929661;29;20042;-77
2023/05/23 05:49:40;;;;;;;9.48;4.70;;;;;;;16.11;100.00;92432.63;4900717;29;20032;-78
2023/05/23 05:52:07;;;;;;;7.50;4.40;;;;;;;16.78;100.00;92431.63;4915259;29;20086;-78
2023/05/23 05:54:33;;;;;;;6.70;4.15;;;;;;;17.53;98.69;92429.94;4937991;29;20043;-77
2023/05/23 05:56:59;;;;;;;7.30;4.20;;;;;;;18.25;91.94;92440.81;4908857;29;20379;-77
2023/05/23 05:59:25;;;;;;;7.28;4.18;;;;;;;18.93;86.88;92435.53;4951611;29;20065;-78
2023/05/23 06:01:51;;;;;;;8.15;4.03;;;;;;;19.57;82.71;92435.63;4953967;29;20117;-79
2023/05/23 06:04:17;;;;;;;6.47;4.10;;;;;;;19.91;80.04;92434.16;4954467;28;20129;-78
2023/05/23 06:06:43;;;;;;;8.00;4.03;;;;;;;19.75;76.87;92426.22;4945543;29;20027;-78
2023/05/23 06:09:10;;;;;;;6.05;4.15;;;;;;;20.05;74.49;92432.94;4920281;29;20044;-78
2023/05/23 06:11:39;;;;;;;6.10;3.90;;;;;;;20.59;71.16;92422.34;4919693;29;20054;-78
2023/05/23 06:14:06;;;;;;;6.07;4.00;;;;;;;21.12;71.23;92426.38;4932418;29;20110;-79
2023/05/23 06:16:35;;;;;;;8.77;3.95;;;;;;;21.56;67.00;92426.03;4937025;29;20190;-77
2023/05/23 06:19:00;;;;;;;5.80;3.63;;;;;;;22.04;65.13;92429.81;4945539;29;20110;-78
2023/05/23 06:21:27;;;;;;;8.45;4.50;;;;;;;22.01;71.36;92432.44;4939414;29;20384;-78
2023/05/23 06:23:53;;;;;;;7.93;4.40;;;;;;;21.94;71.65;92429.66;4923611;29;20043;-78
2023/05/23 06:26:19;;;;;;;9.05;4.45;;;;;;;21.74;64.70;92427.06;4938162;29;20094;-78
2023/05/23 06:28:44;;;;;;;7.63;4.38;;;;;;;21.95;69.51;92429.31;4958419;29;20086;-78
2023/05/23 06:31:11;;;;;;;6.85;4.30;;;;;;;22.06;68.84;92432.13;4954741;29;20035;-79
2023/05/23 06:33:37;;;;;;;10.65;4.57;;;;;;;21.76;68.26;92424.06;4957938;28;20039;-78
2023/05/23 06:36:03;;;;;;;6.68;4.10;;;;;;;21.38;71.21;92426.47;4952629;29;20044;-78
2023/05/23 06:38:32;;;;;;;7.85;4.53;;;;;;;20.67;73.36;92423.28;4945193;29;20269;-78
2023/05/23 06:40:59;;;;;;;7.65;4.40;;;;;;;20.32;75.60;92421.38;4934441;29;20043;-78
2023/05/23 06:43:26;;;;;;;6.80;4.50;;;;;;;20.12;77.12;92422.47;4941760;29;20044;-78
2023/05/23 06:45:58;;;;;;;8.57;4.38;;;;;;;20.21;79.17;92422.28;4925038;29;20062;-78
2023/05/23 06:48:27;;;;;;;7.00;4.40;;;;;;;20.36;78.02;92426.78;4941747;29;20066;-78
2023/05/23 06:50:52;;;;;;;11.07;4.70;;;;;;;20.14;79.40;92421.00;4932686;29;20039;-78
2023/05/23 06:53:19;;;;;;;11.95;5.05;;;;;;;20.08;79.79;92424.28;4957017;28;20059;-78
2023/05/23 06:55:46;;;;;;;9.52;4.75;;;;;;;20.22;80.20;92419.28;4941215;29;20550;-78
2023/05/23 06:58:13;;;;;;;8.10;4.35;;;;;;;20.26;78.22;92422.78;4941086;29;20514;-77
2023/05/23 07:00:39;;;;;;;9.77;4.45;;;;;;;20.38;81.62;92425.31;4954606;29;20042;-77
2023/05/23 07:03:14;;;;;;;5.95;4.30;;;;;;;20.97;79.52;92423.47;4950235;29;20568;-78
2023/05/23 07:05:39;;;;;;;9.00;4.43;;;;;;;21.45;74.01;92417.09;4954278;29;20039;-79
2023/05/23 07:08:06;;;;;;;8.73;4.40;;;;;;;21.30;75.92;92424.03;4953434;29;20398;-77
2023/05/23 07:10:34;;;;;;;8.15;4.90;;;;;;;21.03;77.74;92420.50;4921082;29;20031;-77
2023/05/23 07:13:08;;;;;;;8.63;4.70;;;;;;;20.81;80.23;92422.78;4929722;29;20490;-78
2023/05/23 07:15:34;;;;;;;10.43;4.82;;;;;;;20.38;83.45;92424.56;4920730;29;20047;-77
2023/05/23 07:18:08;;;;;;;10.50;5.30;;;;;;;20.20;88.59;92421.53;4941120;29;20552;-78
2023/05/23 07:20:34;;;;;;;8.45;5.20;;;;;;;20.00;87.87;92422.59;4944227;29;20130;-77
2023/05/23 07:23:09;;;;;;;9.02;5.00;;;;;;;19.89;85.76;92432.97;4953576;28;20497;-78
2023/05/23 07:25:35;;;;;;;6.93;4.50;;;;;;;20.21;82.64;92425.72;4956189;29;20054;-78
2023/05/23 07:28:02;;;;;;;8.82;4.85;;;;;;;20.10;81.76;92428.13;4936282;29;20123;-78
2023/05/23 07:30:27;;;;;;;6.50;4.95;;;;;;;20.20;83.23;92424.19;4949830;29;20252;-78
2023/05/23 07:32:54;;;;;;;7.20;4.68;;;;;;;20.50;82.80;92421.00;4938083;29;20038;-78
2023/05/23 07:35:24;;;;;;;9.57;4.60;;;;;;;20.80;81.70;92429.19;4932869;29;20038;-78
2023/05/23 07:37:54;;;;;;;9.95;4.63;;;;;;;20.69;81.56;92429.03;4939401;29;20044;-78
2023/05/23 07:40:21;;;;;;;8.32;4.68;;;;;;;20.92;79.98;92421.09;4935770;29;20032;-78
2023/05/23 07:42:47;;;;;;;5.85;4.25;;;;;;;21.27;80.34;92420.19;4936451;29;20043;-78
2023/05/23 07:45:12;;;;;;;7.53;4.20;;;;;;;21.44;77.89;92424.31;4954789;28;20034;-78
2023/05/23 07:47:41;;;;;;;11.50;4.78;;;;;;;21.21;77.23;92419.72;4949023;29;20035;-78
2023/05/23 07:50:08;;;;;;;9.02;4.75;;;;;;;21.15;79.32;92417.69;4946840;29;20031;-79
2023/05/23 07:52:34;;;;;;;6.82;4.72;;;;;;;21.25;80.63;92419.00;4951867;28;20096;-79
2023/05/23 07:55:03;;;;;;;10.90;4.93;;;;;;;21.35;81.41;92419.19;4927651;29;20064;-79
2023/05/23 07:57:30;;;;;;;10.63;5.20;;;;;;;21.47;79.30;92415.59;4931193;29;20048;-78
2023/05/23 07:59:56;;;;;;;9.00;4.80;;;;;;;21.31;77.02;92421.00;4926645;29;20032;-77
2023/05/23 08:02:22;;;;;;;9.18;4.72;;;;;;;21.31;80.53;92414.94;4920398;29;20032;-78
2023/05/23 08:04:49;;;;;;;6.78;4.70;;;;;;;21.32;79.96;92414.59;4935756;29;20370;-78
2023/05/23 08:07:15;;;;;;;7.93;4.75;;;;;;;21.30;80.14;92414.16;4918111;29;20048;-78
2023/05/23 08:09:54;;;;;;;7.28;5.07;;;;;;;21.21;80.66;92406.41;4932221;29;20047;-78
2023/05/23 08:12:21;;;;;;;9.63;4.95;;;;;;;21.04;79.07;92409.50;4935426;29;20035;-78
2023/05/23 08:14:50;;;;;;;8.38;5.45;;;;;;;20.90;82.55;92406.59;4935644;29;20087;-78
2023/05/23 08:17:23;;;;;;;10.85;5.40;;;;;;;21.05;82.24;92407.63;4920544;29;20043;-77
2023/05/23 08:19:50;;;;;;;7.57;5.05;;;;;;;21.12;77.44;92403.22;4929271;29;20297;-78
2023/05/23 08:22:16;;;;;;;7.32;5.32;;;;;;;20.98;80.39;92409.03;4926253;29;20059;-78
2023/05/23 08:24:42;;;;;;;7.60;4.82;;;;;;;21.21;81.69;92417.06;4945688;28;20036;-78
2023/05/23 08:27:08;;;;;;;12.07;5.75;;;;;;;21.23;78.77;92403.38;4932541;29;20032;-78
2023/05/23 08:29:35;;;;;;;8.40;4.70;;;;;;;21.25;76.21;92414.44;4935562;29;20039;-78
2023/05/23 08:32:01;;;;;;;7.05;5.18;;;;;;;21.17;81.62;92413.56;4935101;29;20027;-78
2023/05/23 08:34:27;;;;;;;13.55;5.28;;;;;;;21.29;77.99;92415.28;4935267;29;20059;-78
2023/05/23 08:36:52;;;;;;;8.30;4.97;;;;;;;21.23;77.98;92418.56;4935793;29;20036;-78
2023/05/23 08:39:20;;;;;;;14.45;5.00;;;;;;;21.19;78.03;92413.97;4951711;29;20039;-77
2023/05/23 08:41:59;;;;;;;12.02;5.30;;;;;;;21.27;80.84;92412.19;4935574;29;20027;-78
2023/05/23 08:44:25;;;;;;;8.45;4.72;;;;;;;21.21;76.90;92416.28;4951200;28;20054;-78
2023/05/23 08:47:04;;;;;;;9.43;5.00;;;;;;;21.30;79.49;92416.81;4920771;29;20342;-78
2023/05/23 08:49:55;;;;;;;15.32;4.88;;;;;;;21.34;77.46;92417.63;4924321;29;20028;-77
2023/05/23 08:52:24;;;;;;;8.25;4.47;;;;;;;21.49;73.83;92415.25;4933630;29;20047;-78
2023/05/23 08:54:52;;;;;;;10.77;5.50;;;;;;;21.38;72.95;92421.13;4941538;28;20067;-78
2023/05/23 08:57:18;;;;;;;7.72;4.63;;;;;;;21.41;74.49;92412.47;4932628;29;20075;-79
2023/05/23 08:59:51;;;;;;;9.48;5.22;;;;;;;21.62;73.95;92412.06;4944586;29;20032;-78
2023/05/23 09:02:17;;;;;;;10.25;5.20;;;;;;;21.47;76.01;92417.50;4916685;29;20043;-79
2023/05/23 09:04:43;;;;;;;6.90;4.53;;;;;;;21.54;73.93;92413.06;4919318;29;20063;-78
2023/05/23 09:07:17;;;;;;;7.17;4.73;;;;;;;21.78;75.56;92419.91;4927820;29;20032;-77
2023/05/23 09:09:44;;;;;;;6.68;4.60;;;;;;;21.80;73.14;92416.91;4925731;29;20286;-78
2023/05/23 09:12:12;;;;;;;8.52;4.10;;;;;;;21.67;70.88;92420.88;4931910;29;20040;-79
2023/05/23 09:14:40;;;;;;;7.32;4.25;;;;;;;21.91;72.33;92419.69;4930255;29;20415;-78
2023/05/23 09:17:07;;;;;;;7.63;4.50;;;;;;;21.85;70.19;92426.47;4922374;29;20032;-78
2023/05/23 09:19:33;;;;;;;8.02;4.63;;;;;;;22.09;74.32;92418.09;4929767;29;20513;-78
2023/05/23 09:22:10;;;;;;;8.23;4.75;;;;;;;22.14;70.63;92428.44;4950205;29;20059;-78
2023/05/23 09:24:51;;;;;;;7.00;4.78;;;;;;;22.09;69.43;92426.09;4923280;29;20115;-76
2023/05/23 09:27:18;;;;;;;6.72;4.70;;;;;;;22.02;66.54;92425.97;4950074;29;20090;-78
2023/05/23 09:29:43;;;;;;;13.45;4.90;;;;;;;21.98;68.34;92417.16;4935193;29;20030;-78
2023/05/23 09:32:11;;;;;;;7.65;4.40;;;;;;;21.97;69.55;92418.28;4951325;29;20035;-78
2023/05/23 09:35:02;;;;;;;7.75;4.32;;;;;;;21.84;70.78;92401.72;4934429;29;20046;-77
2023/05/23 09:37:31;;;;;;;8.93;4.80;;;;;;;21.83;67.99;92419.59;4934974;29;20392;-78
2023/05/23 09:39:59;;;;;;;7.75;4.43;;;;;;;21.73;62.59;92414.88;4936459;29;20168;-78
2023/05/23 09:42:31;;;;;;;7.15;4.47;;;;;;;21.87;64.52;92413.56;4942367;29;20172;-77
2023/05/23 09:44:58;;;;;;;6.55;4.85;;;;;;;22.06;67.89;92416.13;4915217;29;20039;-76
2023/05/23 09:47:24;;;;;;;7.45;4.60;;;;;;;22.17;68.97;92413.59;4914608;29;20127;-77
2023/05/23 09:49:51;;;;;;;8.85;4.90;;;;;;;22.19;61.75;92412.13;4914684;29;20040;-78
2023/05/23 09:52:20;;;;;;;9.73;4.55;;;;;;;22.24;66.57;92408.41;4918400;29;20070;-78
2023/05/23 09:54:46;;;;;;;7.47;4.78;;;;;;;22.22;67.33;92414.09;4928939;29;20043;-76
2023/05/23 09:57:14;;;;;;;11.20;4.80;;;;;;;22.24;66.45;92401.16;4955679;28;20063;-77
2023/05/23 09:59:44;;;;;;;11.77;4.72;;;;;;;22.35;64.92;92400.53;4957264;29;20045;-79
2023/05/23 10:02:15;;;;;;;8.93;5.32;;;;;;;22.29;63.68;92399.31;4952749;29;20031;-77
2023/05/23 10:04:42;;;;;;;9.20;4.70;;;;;;;22.25;63.33;92399.28;4956270;28;20043;-77
2023/05/23 10:07:17;;;;;;;6.00;4.00;;;;;;;22.19;60.07;92398.03;4944711;29;20512;-77
2023/05/23 10:09:53;;;;;;;9.10;4.40;;;;;;;22.14;58.68;92401.00;4953937;29;20039;-76
2023/05/23 10:12:31;;;;;;;6.28;4.35;;;;;;;22.19;60.59;92401.44;4951130;29;20047;-78
2023/05/23 10:15:03;;;;;;;10.50;4.63;;;;;;;22.38;63.92;92392.59;4955664;28;20405;-78
2023/05/23 10:17:46;;;;;;;7.00;4.70;;;;;;;22.58;62.66;92392.44;4952060;29;20046;-76
2023/05/23 10:20:13;;;;;;;;;;;;;;;22.62;59.97;92388.69;4943732;29;20027;-77
2023/05/23 10:22:40;;;;;;;7.80;4.90;;;;;;;22.78;59.67;92395.72;4956084;29;19929;-78
2023/05/23 10:25:07;;;;;;;7.43;5.18;;;;;;;22.63;59.38;92389.47;4929693;29;20043;-77
2023/05/23 10:27:33;;;;;;;7.90;4.55;;;;;;;22.79;60.43;92391.94;4940601;29;20035;-77
2023/05/23 10:29:59;;;;;;;8.50;4.68;;;;;;;22.85;58.54;92385.13;4952395;29;20445;-76
2023/05/23 10:32:27;;;;;;;8.18;4.18;;;;;;;22.65;57.85;92381.84;4955536;29;20035;-77
2023/05/23 10:35:03;;;;;;;9.43;4.13;;;;;;;22.70;57.81;92388.75;4947571;28;20098;-77
2023/05/23 10:37:52;;;;;;;7.63;4.43;;;;;;;22.78;60.49;92383.16;4950071;29;20047;-77
2023/05/23 10:40:42;;;;;;;7.13;4.47;;;;;;;23.07;59.68;92383.47;4929300;28;20058;-75
2023/05/23 10:43:43;;;;;;;5.85;3.58;;;;;;;23.13;54.68;92378.59;4952345;28;20028;-76
2023/05/23 10:46:12;;;;;;;6.17;4.00;;;;;;;23.06;53.74;92380.06;4940722;29;20059;-77
2023/05/23 10:48:43;;;;;;;8.52;3.60;;;;;;;23.11;55.06;92372.84;4950058;28;20370;-77
2023/05/23 10:51:10;;;;;;;6.80;4.10;;;;;;;23.17;55.93;92374.03;4948395;29;20077;-77
2023/05/23 10:53:45;;;;;;;7.22;3.40;;;;;;;23.18;54.39;92367.56;4955752;28;20118;-75
2023/05/23 10:56:23;;;;;;;8.77;4.40;;;;;;;23.04;57.18;92368.22;4956609;29;20042;-79
2023/05/23 10:58:53;;;;;;;7.15;4.30;;;;;;;23.19;57.01;92377.09;4957105;29;20051;-79
2023/05/23 11:01:19;;;;;;;6.22;4.20;;;;;;;23.12;56.93;92374.38;4958301;29;20118;-79
2023/05/23 11:03:45;;;;;;;8.57;4.68;;;;;;;23.12;56.67;92367.13;4942854;29;20051;-78
2023/05/23 11:06:37;;;;;;;7.10;3.90;;;;;;;23.30;58.00;92364.63;4954092;29;20043;-79
2023/05/23 11:09:21;;;;;;;8.43;4.55;;;;;;;23.34;56.18;92367.34;4938825;29;20422;-78
2023/05/23 11:11:52;;;;;;;8.07;4.78;;;;;;;23.23;60.09;92364.56;4950044;29;20039;-77
2023/05/23 11:14:19;;;;;;;7.57;4.78;;;;;;;23.46;57.73;92364.38;4949400;28;20059;-79
2023/05/23 11:16:47;;;;;;;7.55;4.60;;;;;;;23.32;59.75;92359.69;4943096;29;20045;-79
2023/05/23 11:19:19;;;;;;;9.40;3.85;;;;;;;23.37;54.75;92362.03;4948693;29;20785;-78
2023/05/23 11:21:48;;;;;;;6.80;4.43;;;;;;;23.20;55.00;92359.97;4936446;29;20039;-79
2023/05/23 11:24:13;;;;;;;8.13;4.75;;;;;;;23.52;58.34;92351.47;4956696;28;20039;-79
2023/05/23 11:26:39;;;;;;;9.32;4.95;;;;;;;23.59;58.25;92351.50;4936583;28;20430;-79
2023/05/23 11:29:08;;;;;;;7.00;4.90;;;;;;;23.41;56.26;92351.38;4931211;29;20486;-79
2023/05/23 11:31:39;;;;;;;6.25;4.28;;;;;;;23.44;55.14;92346.06;4956837;29;20039;-78
2023/05/23 11:34:05;;;;;;;7.50;4.70;;;;;;;23.47;57.19;92350.66;4955271;28;20039;-79